createdAt,value
2017-08-01T07:49:51.969Z,62.90
2017-08-01T07:52:20.039Z,62.90
2017-08-01T07:56:13.297Z,62.60
2017-08-01T07:58:41.059Z,62.40
2017-08-01T08:01:08.788Z,61.90
2017-08-01T08:03:36.522Z,61.90
2017-08-01T08:06:04.252Z,60.90
2017-08-01T08:08:31.992Z,59.40
2017-08-01T08:10:59.729Z,60.90
2017-08-01T08:13:27.473Z,59.60
2017-08-01T08:15:55.226Z,59.20
2017-08-01T08:18:22.946Z,58.30
2017-08-01T08:20:50.663Z,60.50
2017-08-01T08:23:18.393Z,60.20
2017-08-01T08:25:46.108Z,59.50
2017-08-01T08:28:13.868Z,57.10
2017-08-01T08:30:41.598Z,59.90
2017-08-01T08:33:09.356Z,59.90
2017-08-01T08:35:37.068Z,57.40
2017-08-01T08:38:04.848Z,58.30
2017-08-01T08:40:32.571Z,59.80
2017-08-01T08:43:00.303Z,59.00
2017-08-01T08:45:28.041Z,58.50
2017-08-01T08:47:55.789Z,57.40
2017-08-01T08:50:23.525Z,58.10
2017-08-01T08:52:51.247Z,58.40
2017-08-01T08:55:19.090Z,57.60
2017-08-01T08:57:46.822Z,56.70
2017-08-01T09:00:14.556Z,54.80
2017-08-01T09:02:42.290Z,55.00
2017-08-01T09:05:10.023Z,54.00
2017-08-01T09:07:38.759Z,57.10
2017-08-01T09:10:06.489Z,57.10
2017-08-01T09:12:34.214Z,55.50
2017-08-01T09:15:01.932Z,55.30
2017-08-01T09:17:29.679Z,55.30
2017-08-01T09:19:57.424Z,54.50
2017-08-01T09:22:25.927Z,54.80
2017-08-01T09:24:53.660Z,54.30
2017-08-01T09:27:21.403Z,52.50
2017-08-01T09:29:49.128Z,52.00
2017-08-01T09:32:16.866Z,52.70
2017-08-01T09:34:45.367Z,52.50
2017-08-01T09:37:13.108Z,52.50
2017-08-01T09:39:40.859Z,52.20
2017-08-01T09:42:08.587Z,53.70
2017-08-01T09:44:36.327Z,52.10
2017-08-01T09:47:04.060Z,53.60
2017-08-01T09:49:32.551Z,51.90
2017-08-01T09:52:00.300Z,51.80
2017-08-01T09:54:28.037Z,52.30
2017-08-01T09:56:55.887Z,53.40
2017-08-01T09:59:23.606Z,53.00
2017-08-01T10:01:51.337Z,51.10
2017-08-01T10:04:19.066Z,53.20
2017-08-01T10:06:46.790Z,50.60
2017-08-01T10:09:14.563Z,51.80
2017-08-01T10:11:42.358Z,51.30
2017-08-01T10:14:10.079Z,48.40
2017-08-01T10:16:37.863Z,47.80
2017-08-01T10:19:05.595Z,48.50
2017-08-01T10:21:33.328Z,50.80
2017-08-01T10:24:01.082Z,52.00
2017-08-01T10:26:28.856Z,53.70
2017-08-01T10:28:56.582Z,52.70
2017-08-01T10:31:24.306Z,52.10
2017-08-01T10:33:52.030Z,50.30
2017-08-01T10:36:19.755Z,51.10
2017-08-01T10:38:48.259Z,49.50
2017-08-01T10:41:16.791Z,49.50
2017-08-01T10:43:44.523Z,49.80
2017-08-01T10:46:12.262Z,49.00
2017-08-01T10:48:40.035Z,49.50
2017-08-01T10:51:07.763Z,48.50
2017-08-01T10:53:35.508Z,46.90
2017-08-01T10:56:03.251Z,46.30
2017-08-01T10:58:30.981Z,47.00
2017-08-01T11:00:58.734Z,45.90
2017-08-01T11:03:26.475Z,47.30
2017-08-01T11:05:54.226Z,46.20
2017-08-01T11:08:22.381Z,46.10
2017-08-01T11:10:50.118Z,45.70
2017-08-01T11:13:17.850Z,44.40
2017-08-01T11:15:46.334Z,42.70
2017-08-01T11:18:14.819Z,38.00
2017-08-01T11:20:42.542Z,38.00
2017-08-01T11:23:11.090Z,35.90
2017-08-01T11:25:38.816Z,37.60
2017-08-01T11:28:06.556Z,32.50
2017-08-01T11:30:34.291Z,31.20
2017-08-01T11:33:02.166Z,29.00
2017-08-01T11:35:29.894Z,30.30
2017-08-01T11:37:57.640Z,30.60
2017-08-01T11:40:26.132Z,30.10
2017-08-01T11:42:53.863Z,30.10
2017-08-01T11:45:22.880Z,29.60
2017-08-01T11:47:50.775Z,27.50
2017-08-01T11:50:18.664Z,28.20
2017-08-01T11:52:46.784Z,30.10
2017-08-01T11:55:24.456Z,26.40
2017-08-01T11:57:53.053Z,29.60
2017-08-01T12:00:20.964Z,26.60
2017-08-01T12:02:48.918Z,27.60
2017-08-01T12:05:16.692Z,28.90
2017-08-01T12:07:44.550Z,24.30
2017-08-01T12:10:12.306Z,26.80
2017-08-01T12:12:40.224Z,26.90
2017-08-01T12:15:08.121Z,28.20
2017-08-01T12:17:36.261Z,25.10
2017-08-01T12:20:04.194Z,26.50
2017-08-01T12:22:32.083Z,24.40
2017-08-01T12:24:59.957Z,30.30
2017-08-01T12:27:27.872Z,33.80
2017-08-01T12:29:55.699Z,33.70
2017-08-01T12:32:23.607Z,34.10
2017-08-01T12:34:51.590Z,34.30
2017-08-01T12:37:20.595Z,34.30
2017-08-01T12:39:48.324Z,31.40
2017-08-01T12:42:16.074Z,31.20
2017-08-01T12:44:44.049Z,28.60
2017-08-01T12:47:11.927Z,32.80
2017-08-01T12:49:39.938Z,30.40
2017-08-01T12:52:07.737Z,29.40
2017-08-01T12:54:35.661Z,30.80
2017-08-01T12:57:03.487Z,29.90
2017-08-01T12:59:31.215Z,31.80
2017-08-01T13:01:58.958Z,31.40
2017-08-01T13:04:26.706Z,30.50
2017-08-01T13:06:54.431Z,30.70
2017-08-01T13:09:22.699Z,31.20
2017-08-01T13:11:50.474Z,30.00
2017-08-01T13:14:19.098Z,31.00
2017-08-01T13:16:46.823Z,30.90
2017-08-01T13:19:14.550Z,29.00
2017-08-01T13:21:43.051Z,28.60
2017-08-01T13:24:10.792Z,28.30
2017-08-01T13:26:38.526Z,27.80
2017-08-01T13:29:06.246Z,29.20
2017-08-01T13:31:33.955Z,29.20
2017-08-01T13:36:39.387Z,27.90
2017-08-01T13:39:07.106Z,27.10
2017-08-01T13:41:34.831Z,28.10
2017-08-01T13:44:02.543Z,27.90
2017-08-01T13:46:30.289Z,28.50
2017-08-01T13:48:58.676Z,27.20
2017-08-01T13:51:26.418Z,27.40
2017-08-01T13:53:54.143Z,26.80
2017-08-01T13:56:21.854Z,26.40
2017-08-01T13:58:49.574Z,26.20
2017-08-01T14:01:18.110Z,25.40
2017-08-01T14:03:46.278Z,26.00
2017-08-01T14:06:14.014Z,27.00
2017-08-01T14:08:42.006Z,25.60
2017-08-01T14:11:09.746Z,25.60
2017-08-01T14:13:37.472Z,25.90
2017-08-01T14:16:05.233Z,24.60
2017-08-01T14:18:32.942Z,24.60
2017-08-01T14:21:01.475Z,25.50
2017-08-01T14:23:29.231Z,24.90
2017-08-01T14:25:57.005Z,23.90
2017-08-01T14:28:25.660Z,25.40
2017-08-01T14:30:53.400Z,26.60
2017-08-01T14:33:21.118Z,27.10
2017-08-01T14:35:48.841Z,26.20
2017-08-01T14:38:16.556Z,25.40
2017-08-01T14:40:44.298Z,25.40
2017-08-01T14:43:12.023Z,24.50
2017-08-01T14:45:39.756Z,26.40
2017-08-01T14:48:07.561Z,28.70
2017-08-01T14:50:35.339Z,30.30
2017-08-01T14:53:03.057Z,29.40
2017-08-01T14:55:30.767Z,29.90
2017-08-01T14:57:58.786Z,31.50
2017-08-01T15:00:26.662Z,32.10
2017-08-01T15:02:54.547Z,32.20
2017-08-01T15:05:22.503Z,33.50
2017-08-01T15:07:50.298Z,34.60
2017-08-01T15:10:18.123Z,34.80
2017-08-01T15:12:46.107Z,35.90
2017-08-01T15:15:13.855Z,36.90
2017-08-01T15:17:41.585Z,37.80
2017-08-01T15:20:09.322Z,37.90
2017-08-01T15:22:37.114Z,39.40
2017-08-01T15:25:04.843Z,39.20
2017-08-01T15:27:33.262Z,39.50
2017-08-01T15:30:01.027Z,39.60
2017-08-01T15:32:28.735Z,39.70
2017-08-01T15:34:56.544Z,39.60
2017-08-01T15:37:24.255Z,40.20
2017-08-01T15:39:52.746Z,41.20
2017-08-01T15:42:20.477Z,40.80
2017-08-01T15:44:48.208Z,38.80
2017-08-01T15:47:15.942Z,38.60
2017-08-01T15:49:43.671Z,38.50
2017-08-01T15:52:11.379Z,38.70
2017-08-01T15:54:39.103Z,37.70
2017-08-01T15:57:06.838Z,38.40
2017-08-01T15:59:34.562Z,39.70
2017-08-01T16:02:02.308Z,39.30
2017-08-01T16:04:30.019Z,40.70
2017-08-01T16:06:57.727Z,40.80
2017-08-01T16:09:25.582Z,41.90
2017-08-01T16:11:54.091Z,44.10
2017-08-01T16:14:21.975Z,44.10
2017-08-01T16:16:49.694Z,45.20
2017-08-01T16:19:17.414Z,45.30
2017-08-01T16:21:45.146Z,45.50
2017-08-01T16:24:12.892Z,45.20
2017-08-01T16:26:41.354Z,45.20
2017-08-01T16:29:09.136Z,45.30
2017-08-01T16:31:36.853Z,45.00
2017-08-01T16:34:04.578Z,45.50
2017-08-01T16:36:32.298Z,46.30
2017-08-01T16:39:00.686Z,45.90
2017-08-01T16:41:28.460Z,46.40
2017-08-01T16:43:56.175Z,45.50
2017-08-01T16:46:23.906Z,46.30
2017-08-01T16:48:51.631Z,45.90
2017-08-01T16:51:19.371Z,46.30
2017-08-01T16:53:47.128Z,46.50
2017-08-01T16:56:14.878Z,46.90
2017-08-01T16:58:42.604Z,46.80
2017-08-01T17:01:10.962Z,47.20
2017-08-01T17:03:38.686Z,47.60
2017-08-01T17:06:06.412Z,48.60
2017-08-01T17:08:34.139Z,48.10
2017-08-01T17:11:01.866Z,48.70
2017-08-01T17:13:29.656Z,49.50
2017-08-01T17:15:58.196Z,48.40
2017-08-01T17:18:26.004Z,48.40
2017-08-01T17:20:53.761Z,47.90
2017-08-01T17:23:21.535Z,48.30
2017-08-01T17:25:49.258Z,48.30
2017-08-01T17:28:16.970Z,48.50
2017-08-01T17:30:44.715Z,49.40
2017-08-01T17:33:12.423Z,49.30
2017-08-01T17:35:40.159Z,50.10
2017-08-01T17:38:08.482Z,49.60
2017-08-01T17:40:36.189Z,51.50
2017-08-01T17:43:03.912Z,56.90
2017-08-01T17:45:31.635Z,57.50
2017-08-01T17:47:59.366Z,59.60
2017-08-01T17:50:27.080Z,59.00
2017-08-01T17:52:54.906Z,60.00
2017-08-01T17:55:22.639Z,61.50
2017-08-01T17:57:50.364Z,61.40
2017-08-01T18:00:18.107Z,62.50
2017-08-01T18:02:45.825Z,63.00
2017-08-01T18:05:13.575Z,62.90
2017-08-01T18:07:42.427Z,62.00
2017-08-01T18:10:10.492Z,64.00
2017-08-01T18:12:38.279Z,62.70
2017-08-01T18:15:06.121Z,63.70
2017-08-01T18:17:34.618Z,64.90
2017-08-01T18:20:02.426Z,64.10
2017-08-01T18:22:30.249Z,63.60
2017-08-01T18:24:58.063Z,63.80
2017-08-01T18:27:25.868Z,65.30
2017-08-01T18:29:53.857Z,63.00
2017-08-01T18:32:24.167Z,65.90
2017-08-01T18:34:52.152Z,65.90
2017-08-01T18:37:20.270Z,65.00
2017-08-01T18:39:48.388Z,65.70
2017-08-01T18:42:17.879Z,64.70
2017-08-01T18:44:45.858Z,64.00
2017-08-01T18:47:13.951Z,64.70
2017-08-01T18:49:41.711Z,65.10
2017-08-01T18:52:10.595Z,65.60
2017-08-01T18:54:38.379Z,65.60
2017-08-01T18:57:06.507Z,66.10
2017-08-01T18:59:36.701Z,66.60
2017-08-01T19:02:04.479Z,67.30
2017-08-01T19:04:32.245Z,67.10
2017-08-01T19:07:00.207Z,66.50
2017-08-01T19:09:29.370Z,66.30
2017-08-01T19:11:57.099Z,66.40
2017-08-01T19:14:24.831Z,66.00
2017-08-01T19:16:52.572Z,67.40
2017-08-01T19:19:20.512Z,67.50
2017-08-01T19:21:48.253Z,68.20
2017-08-01T19:24:15.995Z,67.50
2017-08-01T19:26:43.739Z,67.40
2017-08-01T19:29:11.477Z,67.50
2017-08-01T19:31:40.955Z,68.00
2017-08-01T19:34:08.781Z,68.10
2017-08-01T19:36:36.536Z,67.30
2017-08-01T19:39:04.629Z,67.40
2017-08-01T19:41:32.358Z,67.00
2017-08-01T19:44:00.307Z,67.60
2017-08-01T19:46:29.079Z,67.20
2017-08-01T19:48:56.851Z,67.20
2017-08-01T19:51:24.693Z,65.50
2017-08-01T19:53:52.959Z,65.90
2017-08-01T19:56:20.735Z,65.90
2017-08-01T19:58:48.468Z,66.80
2017-08-01T20:01:16.213Z,66.40
2017-08-01T20:03:44.364Z,66.80
2017-08-01T20:06:12.184Z,65.50
2017-08-01T20:08:40.019Z,65.30
2017-08-01T20:11:08.020Z,66.00
2017-08-01T20:13:35.779Z,67.40
2017-08-01T20:16:03.524Z,67.10
2017-08-01T20:18:31.295Z,67.70
2017-08-01T20:20:59.063Z,67.60
2017-08-01T20:23:26.839Z,68.20
2017-08-01T20:25:54.570Z,68.10
2017-08-01T20:28:22.307Z,65.80
2017-08-01T20:30:50.800Z,66.40
2017-08-01T20:33:18.560Z,65.80
2017-08-01T20:35:46.291Z,66.20
2017-08-01T20:38:14.449Z,67.20
2017-08-01T20:40:42.190Z,65.70
2017-08-01T20:43:10.011Z,66.10
2017-08-01T20:45:37.723Z,66.50
2017-08-01T20:48:06.075Z,65.40
2017-08-01T20:50:33.783Z,65.90
2017-08-01T20:53:01.552Z,65.60
2017-08-01T20:55:29.284Z,66.40
2017-08-01T20:57:57.073Z,65.80
2017-08-01T21:00:24.823Z,65.80
2017-08-01T21:02:52.548Z,66.50
2017-08-01T21:05:21.046Z,66.10
2017-08-01T21:07:48.788Z,66.00
2017-08-01T21:10:16.509Z,67.30
2017-08-01T21:12:44.252Z,65.40
2017-08-01T21:15:12.463Z,66.20
2017-08-01T21:17:40.190Z,66.40
2017-08-01T21:20:07.913Z,67.00
2017-08-01T21:22:35.705Z,67.80
2017-08-01T21:25:03.436Z,67.30
2017-08-01T21:27:31.931Z,68.70
2017-08-01T21:29:59.671Z,68.10
2017-08-01T21:32:27.406Z,68.10
2017-08-01T21:34:55.912Z,68.10
2017-08-01T21:37:23.642Z,68.10
2017-08-01T21:39:51.374Z,68.40
2017-08-01T21:42:19.111Z,68.80
2017-08-01T21:44:46.849Z,69.20
2017-08-01T21:47:14.590Z,69.30
2017-08-01T21:49:42.319Z,69.30
2017-08-01T21:52:10.059Z,68.50
2017-08-01T21:54:37.792Z,69.00
2017-08-01T21:57:05.515Z,68.50
2017-08-01T21:59:33.295Z,69.00
2017-08-01T22:02:00.999Z,69.10
2017-08-01T22:04:28.688Z,69.00
2017-08-01T22:06:56.363Z,68.80
2017-08-01T22:09:24.056Z,68.10
2017-08-01T22:11:51.736Z,67.80
2017-08-01T22:14:19.431Z,68.30
2017-08-01T22:16:47.129Z,68.50
2017-08-01T22:19:14.824Z,67.90
2017-08-01T22:21:42.606Z,67.30
2017-08-01T22:24:10.307Z,68.00
2017-08-01T22:26:38.000Z,67.70
2017-08-01T22:29:06.213Z,67.60
2017-08-01T22:31:33.920Z,67.70
2017-08-01T22:34:01.601Z,67.70
2017-08-01T22:36:29.304Z,67.00
2017-08-01T22:38:56.987Z,67.30
2017-08-01T22:41:24.687Z,67.50
2017-08-01T22:43:52.384Z,67.40
2017-08-01T22:46:20.076Z,67.60
2017-08-01T22:48:47.769Z,68.10
2017-08-01T22:51:15.460Z,69.00
2017-08-01T22:53:43.147Z,69.40
2017-08-01T22:56:11.610Z,69.20
2017-08-01T22:58:39.302Z,69.80
2017-08-01T23:01:07.005Z,69.60
2017-08-01T23:03:34.684Z,69.20
2017-08-01T23:06:02.385Z,69.40
2017-08-01T23:08:30.063Z,69.80
2017-08-01T23:10:57.868Z,69.70
2017-08-01T23:13:25.572Z,69.30
2017-08-01T23:15:53.253Z,68.80
2017-08-01T23:18:20.960Z,68.90
2017-08-01T23:20:48.652Z,69.40
2017-08-01T23:23:17.108Z,69.70
2017-08-01T23:25:45.429Z,69.70
2017-08-01T23:28:13.136Z,69.00
2017-08-01T23:30:40.831Z,68.90
2017-08-01T23:33:08.519Z,69.10
2017-08-01T23:35:36.216Z,69.40
2017-08-01T23:38:03.917Z,69.30
2017-08-01T23:40:31.598Z,69.50
2017-08-01T23:42:59.314Z,68.80
2017-08-01T23:45:27.020Z,68.40
2017-08-01T23:47:54.712Z,68.40
2017-08-01T23:50:22.393Z,68.20
2017-08-01T23:52:50.100Z,68.00
2017-08-01T23:55:17.784Z,68.30
2017-08-01T23:57:45.469Z,68.70
